createdAt,value
2017-08-17T18:17:26.522Z,85.70
2017-08-17T18:19:54.917Z,87.60
2017-08-17T18:22:22.500Z,87.50
2017-08-17T18:24:50.134Z,87.90
2017-08-17T18:27:17.756Z,88.80
2017-08-17T18:29:45.437Z,88.70
2017-08-17T18:32:13.821Z,88.70
2017-08-17T18:34:42.175Z,88.80
2017-08-17T18:37:10.081Z,88.70
2017-08-17T18:39:37.800Z,89.20
2017-08-17T18:42:05.401Z,89.60
2017-08-17T18:44:33.733Z,90.10
2017-08-17T18:47:01.529Z,90.00
2017-08-17T18:49:29.607Z,89.90
2017-08-17T18:51:57.308Z,90.10
2017-08-17T18:54:25.012Z,90.20
2017-08-17T18:56:52.640Z,90.40
2017-08-17T18:59:20.247Z,90.40
2017-08-17T19:01:47.876Z,90.60
2017-08-17T19:04:15.518Z,90.70
2017-08-17T19:06:43.192Z,90.90
2017-08-17T19:09:11.106Z,91.00
2017-08-17T19:11:39.467Z,91.30
2017-08-17T19:14:07.208Z,91.30
2017-08-17T19:16:35.325Z,91.40
2017-08-17T19:19:03.217Z,91.60
2017-08-17T19:21:31.036Z,91.70
2017-08-17T19:23:59.161Z,91.80
2017-08-17T19:26:26.751Z,91.90
2017-08-17T19:28:54.322Z,91.90
2017-08-17T19:31:22.052Z,92.10
2017-08-17T19:33:49.889Z,92.10
2017-08-17T19:36:18.540Z,92.20
2017-08-17T19:38:46.302Z,92.20
2017-08-17T19:41:13.988Z,92.20
2017-08-17T19:43:41.690Z,92.20
2017-08-17T19:46:09.320Z,92.20
2017-08-17T19:48:37.747Z,92.30
2017-08-17T19:51:05.388Z,92.30
2017-08-17T19:53:33.441Z,92.30
2017-08-17T19:56:01.147Z,92.40
2017-08-17T19:58:28.793Z,92.30
2017-08-17T20:00:56.454Z,92.40
2017-08-17T20:03:24.095Z,92.20
2017-08-17T20:05:51.766Z,92.20
2017-08-17T20:08:19.437Z,92.30
2017-08-17T20:10:47.069Z,92.20
2017-08-17T20:13:15.458Z,92.30
2017-08-17T20:15:43.140Z,92.20
2017-08-17T20:18:10.772Z,92.20
2017-08-17T20:20:38.357Z,92.40
2017-08-17T20:23:06.048Z,92.40
2017-08-17T20:25:33.665Z,92.40
2017-08-17T20:28:01.247Z,92.40
2017-08-17T20:30:28.915Z,92.50
2017-08-17T20:32:57.145Z,92.70
2017-08-17T20:35:25.540Z,92.70
2017-08-17T20:37:53.159Z,92.70
2017-08-17T20:40:20.895Z,92.70
2017-08-17T20:42:49.736Z,92.70
2017-08-17T20:45:18.122Z,92.90
2017-08-17T20:47:46.482Z,92.90
2017-08-17T20:50:14.133Z,92.80
2017-08-17T20:52:41.777Z,92.80
2017-08-17T20:55:09.376Z,92.70
2017-08-17T20:57:37.723Z,92.90
2017-08-17T21:00:06.055Z,92.90
2017-08-17T21:02:34.228Z,93.10
2017-08-17T21:05:01.962Z,93.10
2017-08-17T21:07:30.729Z,93.30
2017-08-17T21:09:58.434Z,93.40
2017-08-17T21:12:26.058Z,93.40
2017-08-17T21:14:53.673Z,93.50
2017-08-17T21:17:21.719Z,93.50
2017-08-17T21:19:50.509Z,93.50
2017-08-17T21:22:18.294Z,93.60
2017-08-17T21:24:45.918Z,93.70
2017-08-17T21:27:13.552Z,93.90
2017-08-17T21:29:41.199Z,93.90
2017-08-17T21:32:08.777Z,94.00
2017-08-17T21:34:36.380Z,94.10
2017-08-17T21:37:04.015Z,94.20
2017-08-17T21:39:31.770Z,94.20
2017-08-17T21:41:59.363Z,94.40
2017-08-17T21:44:27.813Z,94.60
2017-08-17T21:46:55.480Z,94.60
2017-08-17T21:49:23.111Z,94.70
2017-08-17T21:51:51.871Z,94.70
2017-08-17T21:54:19.559Z,94.70
2017-08-17T21:56:47.218Z,94.90
2017-08-17T21:59:14.854Z,94.90
2017-08-17T22:01:42.512Z,95.10
2017-08-17T22:04:10.144Z,95.10
2017-08-17T22:06:37.908Z,95.00
2017-08-17T22:09:05.635Z,95.10
2017-08-17T22:11:33.557Z,95.10
2017-08-17T22:14:01.975Z,95.20
2017-08-17T22:16:29.564Z,95.10
2017-08-17T22:18:57.189Z,95.10
2017-08-17T22:21:24.918Z,95.10
2017-08-17T22:23:53.309Z,95.10
2017-08-17T22:26:20.882Z,95.10
2017-08-17T22:28:48.524Z,95.10
2017-08-17T22:31:16.916Z,95.00
2017-08-17T22:33:44.491Z,95.00
2017-08-17T22:36:12.103Z,95.00
2017-08-17T22:38:39.767Z,95.00
2017-08-17T22:41:07.400Z,94.80
2017-08-17T22:43:35.005Z,94.80
2017-08-17T22:46:03.449Z,94.80
2017-08-17T22:48:31.297Z,94.80
2017-08-17T22:50:58.910Z,94.70
2017-08-17T22:53:27.259Z,94.60
2017-08-17T22:55:54.891Z,94.60
2017-08-17T22:58:22.607Z,94.50
2017-08-17T23:00:50.188Z,94.50
2017-08-17T23:03:17.887Z,94.80
2017-08-17T23:05:45.484Z,94.40
2017-08-17T23:08:13.087Z,94.70
2017-08-17T23:10:40.709Z,94.40
2017-08-17T23:13:09.148Z,94.40
2017-08-17T23:15:36.722Z,94.40
2017-08-17T23:18:04.290Z,94.50
2017-08-17T23:20:31.941Z,94.80
2017-08-17T23:22:59.531Z,94.80
2017-08-17T23:25:27.174Z,95.00
2017-08-17T23:27:54.869Z,95.30
2017-08-17T23:30:23.324Z,95.40
2017-08-17T23:32:50.909Z,95.40
2017-08-17T23:35:19.293Z,95.50
2017-08-17T23:37:46.903Z,95.50
2017-08-17T23:40:14.520Z,95.60
2017-08-17T23:42:42.149Z,95.70
2017-08-17T23:45:09.815Z,96.10
2017-08-17T23:47:37.490Z,95.90
2017-08-17T23:50:05.124Z,96.00
2017-08-17T23:52:32.708Z,95.90
2017-08-17T23:55:00.397Z,96.00
2017-08-17T23:57:28.036Z,96.20
2017-08-17T23:59:56.391Z,96.10
